East Springfield, Pennsylvania
Current Conditions -  °F | °C
As of 4:13 PM on Tuesday 21 Oct 2014 (Local Time) from KERI Reporting Station
Overcast Overcast  
Wind Chill: 11°   Ceiling: 1400
Heat Index: 11°   Visibility: 10mi
Dew Point:   Wind: 8mph
Humidity: 76%   Direction: 350°N
Pressure: 29.93"   Gusts: NA
Location:  41.96°N, 80.41°W
Report Text: KERI 212013Z 35007KT 10SM BKN014 OVC020 11/07 A2993 RMK AO2
Loading
Personal Weather Stations






























Interactive Weather Map
Tropical Storm Tracking
New forecast layout! Learn more

10-Day Weather Forecast

Advertisements
Track Severe Weather on mobile